createdAt,value
2022-12-27T00:01:17.957Z,0.15
2022-12-27T00:03:44.083Z,0.68
2022-12-27T00:06:10.204Z,2.42
2022-12-27T00:08:36.365Z,0.60
2022-12-27T00:11:02.493Z,3.88
2022-12-27T00:13:28.609Z,0.90
2022-12-27T00:15:54.783Z,1.45
2022-12-27T00:18:20.917Z,1.15
2022-12-27T00:20:47.056Z,1.60
2022-12-27T00:23:13.235Z,1.75
2022-12-27T00:25:39.356Z,0.55
2022-12-27T00:28:05.475Z,0.73
2022-12-27T00:30:32.227Z,1.30
2022-12-27T00:32:58.350Z,1.05
2022-12-27T00:35:24.455Z,0.70
2022-12-27T00:37:50.585Z,0.93
2022-12-27T00:40:16.712Z,2.05
2022-12-27T00:42:42.832Z,2.00
2022-12-27T00:45:08.970Z,1.13
2022-12-27T00:47:35.113Z,2.15
2022-12-27T00:50:01.266Z,2.13
2022-12-27T00:52:27.385Z,0.73
2022-12-27T00:54:53.531Z,0.70
2022-12-27T00:57:19.660Z,1.63
2022-12-27T00:59:45.818Z,1.58
2022-12-27T01:02:11.944Z,2.92
2022-12-27T01:04:38.674Z,0.85
2022-12-27T01:07:04.820Z,2.22
2022-12-27T01:09:30.984Z,0.93
2022-12-27T01:11:57.107Z,1.45
2022-12-27T01:14:23.238Z,1.65
2022-12-27T01:16:49.408Z,3.17
2022-12-27T01:19:15.577Z,1.30
2022-12-27T01:21:41.740Z,1.67
2022-12-27T01:24:07.864Z,3.33
2022-12-27T01:26:34.011Z,2.47
2022-12-27T01:29:00.136Z,3.20
2022-12-27T01:31:26.417Z,2.55
2022-12-27T01:33:52.566Z,2.60
2022-12-27T01:36:18.708Z,2.47
2022-12-27T01:38:45.949Z,5.57
2022-12-27T01:41:12.077Z,1.50
2022-12-27T01:43:38.210Z,2.83
2022-12-27T01:46:04.425Z,1.33
2022-12-27T01:48:30.576Z,2.35
2022-12-27T01:50:56.755Z,2.30
2022-12-27T01:53:22.883Z,2.22
2022-12-27T01:55:49.079Z,2.05
2022-12-27T01:58:15.233Z,3.42
2022-12-27T02:00:41.373Z,2.05
2022-12-27T02:03:07.510Z,1.55
2022-12-27T02:05:33.729Z,2.53
2022-12-27T02:07:59.974Z,1.27
2022-12-27T02:10:26.095Z,1.27
2022-12-27T02:12:52.226Z,1.40
2022-12-27T02:15:18.410Z,4.25
2022-12-27T02:17:44.596Z,4.22
2022-12-27T02:20:10.795Z,2.90
2022-12-27T02:22:36.919Z,3.50
2022-12-27T02:25:03.038Z,0.65
2022-12-27T02:27:29.293Z,1.75
2022-12-27T02:29:55.440Z,1.10
2022-12-27T02:32:21.573Z,1.85
2022-12-27T02:34:47.695Z,1.67
2022-12-27T02:37:13.924Z,2.92
2022-12-27T02:39:40.104Z,2.15
2022-12-27T02:42:06.266Z,1.33
2022-12-27T02:44:32.382Z,1.60
2022-12-27T02:46:58.583Z,1.77
2022-12-27T02:49:24.747Z,1.55
2022-12-27T02:51:50.880Z,3.00
2022-12-27T02:54:17.019Z,2.08
2022-12-27T02:56:43.139Z,3.05
2022-12-27T02:59:09.283Z,2.35
2022-12-27T03:01:35.455Z,2.30
2022-12-27T03:04:01.629Z,2.35
2022-12-27T03:06:27.766Z,2.05
2022-12-27T03:08:53.924Z,1.23
2022-12-27T03:11:20.041Z,1.00
2022-12-27T03:13:46.173Z,1.38
2022-12-27T03:16:12.337Z,1.80
2022-12-27T03:18:38.525Z,1.65
2022-12-27T03:21:04.663Z,1.38
2022-12-27T03:23:31.271Z,2.13
2022-12-27T03:25:57.495Z,0.85
2022-12-27T03:28:23.621Z,1.73
2022-12-27T03:30:49.816Z,2.17
2022-12-27T03:33:15.969Z,2.85
2022-12-27T03:35:42.121Z,1.73
2022-12-27T03:38:08.256Z,1.73
2022-12-27T03:40:34.476Z,0.90
2022-12-27T03:43:00.611Z,1.45
2022-12-27T03:45:26.764Z,1.35
2022-12-27T03:47:52.886Z,2.85
2022-12-27T03:50:19.003Z,2.47
2022-12-27T03:52:45.135Z,2.45
2022-12-27T03:55:11.255Z,1.08
2022-12-27T03:57:37.397Z,2.08
2022-12-27T04:00:03.541Z,1.80
2022-12-27T04:02:29.860Z,3.53
2022-12-27T04:04:56.166Z,1.65
2022-12-27T04:07:22.285Z,2.65
2022-12-27T04:09:48.423Z,1.80
2022-12-27T04:12:14.527Z,1.95
2022-12-27T04:14:40.668Z,1.13
2022-12-27T04:17:06.792Z,1.75
2022-12-27T04:19:32.916Z,3.42
2022-12-27T04:21:59.056Z,2.22
2022-12-27T04:24:25.194Z,3.05
2022-12-27T04:26:51.336Z,2.22
2022-12-27T04:29:17.442Z,1.58
2022-12-27T04:31:43.565Z,2.90
2022-12-27T04:34:09.698Z,4.20
2022-12-27T04:36:35.799Z,1.40
2022-12-27T04:39:01.958Z,1.80
2022-12-27T04:41:28.520Z,1.30
2022-12-27T04:43:54.667Z,1.35
2022-12-27T04:46:20.846Z,1.00
2022-12-27T04:48:47.005Z,1.65
2022-12-27T04:51:13.170Z,1.83
2022-12-27T04:53:39.312Z,2.83
2022-12-27T04:56:05.440Z,2.90
2022-12-27T04:58:31.572Z,2.30
2022-12-27T05:00:57.698Z,1.42
2022-12-27T05:03:23.845Z,4.90
2022-12-27T05:05:50.089Z,3.38
2022-12-27T05:08:16.297Z,1.85
2022-12-27T05:10:42.425Z,1.55
2022-12-27T05:13:08.582Z,1.10
2022-12-27T05:15:34.799Z,1.00
2022-12-27T05:18:00.919Z,0.98
2022-12-27T05:20:27.067Z,3.42
2022-12-27T05:22:53.193Z,1.25
2022-12-27T05:25:19.328Z,1.40
2022-12-27T05:27:45.510Z,2.65
2022-12-27T05:30:11.634Z,5.35
2022-12-27T05:32:37.769Z,2.03
2022-12-27T05:35:03.890Z,2.28
2022-12-27T05:37:30.020Z,0.98
2022-12-27T05:39:56.126Z,4.22
2022-12-27T05:42:22.315Z,2.78
2022-12-27T05:44:48.461Z,3.30
2022-12-27T05:47:14.587Z,2.03
2022-12-27T05:49:40.887Z,4.45
2022-12-27T05:52:07.023Z,1.83
2022-12-27T05:54:33.131Z,1.67
2022-12-27T05:56:59.305Z,1.30
2022-12-27T05:59:25.431Z,3.40
2022-12-27T06:01:51.655Z,1.67
2022-12-27T06:04:17.975Z,3.88
2022-12-27T06:06:44.118Z,2.00
2022-12-27T06:09:10.291Z,2.08
2022-12-27T06:11:36.407Z,1.85
2022-12-27T06:14:02.546Z,1.23
2022-12-27T06:16:28.712Z,1.52
2022-12-27T06:18:54.881Z,3.55
2022-12-27T06:21:21.001Z,2.80
2022-12-27T06:23:47.121Z,3.50
2022-12-27T06:26:13.229Z,1.85
2022-12-27T06:28:39.368Z,1.55
2022-12-27T06:31:05.511Z,2.45
2022-12-27T06:33:31.680Z,4.43
2022-12-27T06:35:57.820Z,3.17
2022-12-27T06:38:23.949Z,3.35
2022-12-27T06:40:50.078Z,4.47
2022-12-27T06:43:16.205Z,3.70
2022-12-27T06:45:42.386Z,3.30
2022-12-27T06:48:08.536Z,2.22
2022-12-27T06:50:34.675Z,2.08
2022-12-27T06:53:00.791Z,4.45
2022-12-27T06:55:26.944Z,2.58
2022-12-27T06:57:53.060Z,3.55
2022-12-27T07:00:19.230Z,2.58
2022-12-27T07:02:45.433Z,5.55
2022-12-27T07:05:11.640Z,3.55
2022-12-27T07:07:37.776Z,4.60
2022-12-27T07:10:03.909Z,3.40
2022-12-27T07:12:36.290Z,3.42
2022-12-27T07:15:02.871Z,4.40
2022-12-27T07:17:28.984Z,4.50
2022-12-27T07:19:55.099Z,3.55
2022-12-27T07:22:21.211Z,4.00
2022-12-27T07:24:47.342Z,4.47
2022-12-27T07:27:13.454Z,5.20
2022-12-27T07:29:45.307Z,10.23
2022-12-27T07:32:11.937Z,3.67
2022-12-27T07:34:38.112Z,6.53
2022-12-27T07:37:04.222Z,4.53
2022-12-27T07:39:30.383Z,5.07
2022-12-27T07:41:56.514Z,5.65
2022-12-27T07:44:22.634Z,5.47
2022-12-27T07:46:48.766Z,4.28
2022-12-27T07:49:17.865Z,7.75
2022-12-27T07:51:44.373Z,3.60
2022-12-27T07:54:10.516Z,4.30
2022-12-27T07:56:36.625Z,3.72
2022-12-27T07:59:02.764Z,4.05
2022-12-27T08:01:29.020Z,6.20
2022-12-27T08:03:55.295Z,2.35
2022-12-27T08:06:21.416Z,5.53
2022-12-27T08:08:47.578Z,2.78
2022-12-27T08:11:13.705Z,3.75
2022-12-27T08:13:39.847Z,3.40
2022-12-27T08:16:06.001Z,2.33
2022-12-27T08:18:32.164Z,2.35
2022-12-27T08:20:58.271Z,3.38
2022-12-27T08:23:24.415Z,2.00
2022-12-27T08:25:50.560Z,1.95
2022-12-27T08:28:16.690Z,1.95
2022-12-27T08:30:42.854Z,4.57
2022-12-27T08:33:09.012Z,4.18
2022-12-27T08:38:21.291Z,1.88
2022-12-27T08:40:47.430Z,2.53
2022-12-27T08:43:13.570Z,2.97
2022-12-27T08:45:39.707Z,1.55
2022-12-27T08:48:05.902Z,3.08
2022-12-27T08:50:32.184Z,4.20
2022-12-27T08:52:58.396Z,4.57
2022-12-27T08:55:24.511Z,3.15
2022-12-27T08:57:50.656Z,5.13
2022-12-27T09:00:16.795Z,2.83
2022-12-27T09:02:42.994Z,3.55
2022-12-27T09:05:09.239Z,5.50
2022-12-27T09:07:35.394Z,2.42
2022-12-27T09:10:01.542Z,2.63
2022-12-27T09:12:27.686Z,2.08
2022-12-27T09:14:53.789Z,2.75
2022-12-27T09:17:19.913Z,2.65
2022-12-27T09:19:46.034Z,4.07
2022-12-27T09:22:12.182Z,2.88
2022-12-27T09:24:38.327Z,3.10
2022-12-27T09:27:04.452Z,4.10
2022-12-27T09:29:30.638Z,4.78
2022-12-27T09:31:56.792Z,3.70
2022-12-27T09:34:22.946Z,3.47
2022-12-27T09:36:49.061Z,1.48
2022-12-27T09:39:15.294Z,3.17
2022-12-27T09:42:34.130Z,3.22
2022-12-27T09:44:27.704Z,3.25
2022-12-27T09:46:53.837Z,2.95
2022-12-27T09:49:19.965Z,1.27
2022-12-27T09:51:46.091Z,3.75
2022-12-27T09:54:12.302Z,1.90
2022-12-27T09:57:09.610Z,2.10
2022-12-27T09:59:24.529Z,1.98
2022-12-27T10:01:50.864Z,2.17
2022-12-27T10:04:17.128Z,1.10
2022-12-27T10:06:43.304Z,1.88
2022-12-27T10:09:09.426Z,1.63
2022-12-27T10:11:35.578Z,0.88
2022-12-27T10:14:01.691Z,1.00
2022-12-27T10:16:27.879Z,0.88
2022-12-27T10:18:54.022Z,2.33
2022-12-27T10:21:20.198Z,1.80
2022-12-27T10:23:46.328Z,1.85
2022-12-27T10:26:12.456Z,1.20
2022-12-27T10:28:38.611Z,2.25
2022-12-27T10:31:04.785Z,1.60
2022-12-27T10:33:30.948Z,2.22
2022-12-27T10:35:57.074Z,1.52
2022-12-27T10:38:23.214Z,0.60
2022-12-27T10:40:49.330Z,1.77
2022-12-27T10:43:15.442Z,1.42
2022-12-27T10:45:41.579Z,2.75
2022-12-27T10:48:07.697Z,0.73
2022-12-27T10:50:33.807Z,3.40
2022-12-27T10:52:59.974Z,1.42
2022-12-27T10:55:26.118Z,2.22
2022-12-27T10:57:52.223Z,2.08
2022-12-27T11:00:18.407Z,2.15
2022-12-27T11:02:44.706Z,1.08
2022-12-27T11:05:10.919Z,2.03
2022-12-27T11:07:37.058Z,2.05
2022-12-27T11:10:03.261Z,0.43
2022-12-27T11:12:29.398Z,2.55
2022-12-27T11:14:55.550Z,3.17
2022-12-27T11:17:21.666Z,2.97
2022-12-27T11:19:47.804Z,1.20
2022-12-27T11:22:13.944Z,2.60
2022-12-27T11:24:40.058Z,5.05
2022-12-27T11:27:06.246Z,1.65
2022-12-27T11:29:32.426Z,2.88
2022-12-27T11:31:58.591Z,2.38
2022-12-27T11:34:24.755Z,1.00
2022-12-27T11:36:50.880Z,1.48
2022-12-27T11:39:17.066Z,1.83
2022-12-27T11:41:43.176Z,2.50
2022-12-27T11:44:09.310Z,2.75
2022-12-27T11:46:35.514Z,2.60
2022-12-27T11:49:01.666Z,2.80
2022-12-27T11:51:27.837Z,5.03
2022-12-27T11:53:56.222Z,2.85
2022-12-27T11:56:22.743Z,2.63
2022-12-27T11:58:48.874Z,1.00
2022-12-27T12:01:15.046Z,3.47
2022-12-27T12:03:41.241Z,5.82
2022-12-27T12:06:07.412Z,2.13
2022-12-27T12:08:33.705Z,1.60
2022-12-27T12:10:59.812Z,4.10
2022-12-27T12:13:25.960Z,7.47
2022-12-27T12:15:52.075Z,2.95
2022-12-27T12:18:18.240Z,1.63
2022-12-27T12:20:50.339Z,1.27
2022-12-27T12:23:17.017Z,3.92
2022-12-27T12:25:43.129Z,3.10
2022-12-27T12:28:30.056Z,2.45
2022-12-27T12:30:55.359Z,1.55
2022-12-27T12:33:21.473Z,2.45
2022-12-27T12:35:47.603Z,9.30
2022-12-27T12:38:13.753Z,2.38
2022-12-27T12:40:39.926Z,1.48
2022-12-27T12:43:06.037Z,3.85
2022-12-27T12:45:32.305Z,5.10
2022-12-27T12:47:58.485Z,1.25
2022-12-27T12:50:24.631Z,1.35
2022-12-27T12:52:50.742Z,3.53
2022-12-27T12:55:16.861Z,4.18
2022-12-27T12:57:42.996Z,2.88
2022-12-27T13:00:09.140Z,3.38
2022-12-27T13:02:35.414Z,3.25
2022-12-27T13:05:01.678Z,2.35
2022-12-27T13:07:27.865Z,3.22
2022-12-27T13:09:53.997Z,5.22
2022-12-27T13:12:20.152Z,3.85
2022-12-27T13:14:46.287Z,5.25
2022-12-27T13:17:12.479Z,1.73
2022-12-27T13:19:38.614Z,3.28
2022-12-27T13:22:04.724Z,2.25
2022-12-27T13:24:30.886Z,3.72
2022-12-27T13:26:57.026Z,6.53
2022-12-27T13:29:23.174Z,1.67
2022-12-27T13:31:49.319Z,6.90
2022-12-27T13:34:15.483Z,3.22
2022-12-27T13:36:41.660Z,3.05
2022-12-27T13:39:07.782Z,4.18
2022-12-27T13:41:33.918Z,2.83
2022-12-27T13:44:00.082Z,2.58
2022-12-27T13:46:26.304Z,2.85
2022-12-27T13:48:52.445Z,2.58
2022-12-27T13:51:18.599Z,4.32
2022-12-27T13:53:44.734Z,3.80
2022-12-27T13:56:43.575Z,4.93
2022-12-27T13:58:59.746Z,4.07
2022-12-27T14:01:26.115Z,2.13
2022-12-27T14:03:52.281Z,2.28
2022-12-27T14:06:18.425Z,2.65
2022-12-27T14:08:44.544Z,2.97
2022-12-27T14:11:10.665Z,2.88
2022-12-27T14:13:36.900Z,4.57
2022-12-27T14:16:03.117Z,3.45
2022-12-27T14:18:29.260Z,3.47
2022-12-27T14:20:55.378Z,4.30
2022-12-27T14:23:21.533Z,3.13
2022-12-27T14:25:47.659Z,4.68
2022-12-27T14:28:13.804Z,6.75
2022-12-27T14:30:39.948Z,3.47
2022-12-27T14:33:06.110Z,3.10
2022-12-27T14:35:32.241Z,3.35
2022-12-27T14:37:58.424Z,3.28
2022-12-27T14:40:27.583Z,2.70
2022-12-27T14:42:56.327Z,3.30
2022-12-27T14:45:23.267Z,4.85
2022-12-27T14:47:49.772Z,8.38
2022-12-27T14:50:16.137Z,4.53
2022-12-27T14:52:44.112Z,3.65
2022-12-27T14:55:10.811Z,4.80
2022-12-27T14:57:37.327Z,5.22
2022-12-27T15:00:03.601Z,4.13
2022-12-27T15:02:30.167Z,2.58
2022-12-27T15:04:56.658Z,8.43
2022-12-27T15:07:23.080Z,6.80
2022-12-27T15:09:49.494Z,6.95
2022-12-27T15:12:16.127Z,4.68
2022-12-27T15:14:42.422Z,2.65
2022-12-27T15:17:08.867Z,3.83
2022-12-27T15:19:35.391Z,4.68
2022-12-27T15:22:01.743Z,3.63
2022-12-27T15:24:28.009Z,4.65
2022-12-27T15:26:54.380Z,3.88
2022-12-27T15:29:20.561Z,4.57
2022-12-27T15:31:46.869Z,8.10
2022-12-27T15:34:13.462Z,5.38
2022-12-27T15:36:39.618Z,6.20
2022-12-27T15:39:05.946Z,5.07
2022-12-27T15:41:33.545Z,4.38
2022-12-27T15:43:59.883Z,9.68
2022-12-27T15:46:28.648Z,11.50
2022-12-27T15:48:59.174Z,9.48
2022-12-27T15:51:25.403Z,20.27
2022-12-27T15:53:51.831Z,22.45
2022-12-27T15:56:20.797Z,26.45
2022-12-27T15:58:46.976Z,22.60
2022-12-27T16:01:13.208Z,24.45
2022-12-27T16:03:39.657Z,22.65
2022-12-27T16:06:05.865Z,12.05
2022-12-27T16:08:32.007Z,17.35
2022-12-27T16:10:58.181Z,9.10
2022-12-27T16:13:24.305Z,6.82
2022-12-27T16:15:50.525Z,5.93
2022-12-27T16:18:16.661Z,10.90
2022-12-27T16:20:42.846Z,9.70
2022-12-27T16:23:08.975Z,7.88
2022-12-27T16:25:35.093Z,8.52
2022-12-27T16:28:01.245Z,4.65
2022-12-27T16:30:27.796Z,7.43
2022-12-27T16:32:54.217Z,7.45
2022-12-27T16:35:20.342Z,5.18
2022-12-27T16:37:46.471Z,6.60
2022-12-27T16:40:12.609Z,4.72
2022-12-27T16:42:38.737Z,4.65
2022-12-27T16:45:04.901Z,8.75
2022-12-27T16:47:31.116Z,9.38
2022-12-27T16:49:57.309Z,5.85
2022-12-27T16:52:23.455Z,7.70
2022-12-27T16:54:49.628Z,9.25
2022-12-27T16:57:19.914Z,7.35
2022-12-27T16:59:46.171Z,7.95
2022-12-27T17:02:12.454Z,8.13
2022-12-27T17:04:38.654Z,8.10
2022-12-27T17:07:04.770Z,7.35
2022-12-27T17:09:33.959Z,7.20
2022-12-27T17:12:00.362Z,8.85
2022-12-27T17:14:26.473Z,6.63
2022-12-27T17:16:52.702Z,10.98
2022-12-27T17:19:18.846Z,5.07
2022-12-27T17:21:45.015Z,5.60
2022-12-27T17:24:11.132Z,7.03
2022-12-27T17:26:37.256Z,4.70
2022-12-27T17:29:03.397Z,7.75
2022-12-27T17:31:29.585Z,7.07
2022-12-27T17:33:55.738Z,8.30
2022-12-27T17:36:21.847Z,5.47
2022-12-27T17:38:47.967Z,6.13
2022-12-27T17:41:16.090Z,5.95
2022-12-27T17:43:42.446Z,6.07
2022-12-27T17:46:08.657Z,6.78
2022-12-27T17:48:34.812Z,9.82
2022-12-27T17:51:00.947Z,7.93
2022-12-27T17:53:27.084Z,9.82
2022-12-27T17:55:53.197Z,8.32
2022-12-27T17:58:19.368Z,8.13
2022-12-27T18:00:45.600Z,6.43
2022-12-27T18:03:11.852Z,8.70
2022-12-27T18:05:38.069Z,7.90
2022-12-27T18:08:04.228Z,12.75
2022-12-27T18:10:30.370Z,9.20
2022-12-27T18:12:56.490Z,7.85
2022-12-27T18:15:22.663Z,6.90
2022-12-27T18:17:48.803Z,9.43
2022-12-27T18:20:14.953Z,9.55
2022-12-27T18:22:41.071Z,9.43
2022-12-27T18:25:07.306Z,9.07
2022-12-27T18:27:33.416Z,7.82
2022-12-27T18:29:59.633Z,8.70
2022-12-27T18:32:25.768Z,9.52
2022-12-27T18:34:51.897Z,14.45
2022-12-27T18:37:18.013Z,12.85
2022-12-27T18:39:44.181Z,16.95
2022-12-27T18:42:10.298Z,21.05
2022-12-27T18:44:36.436Z,8.15
2022-12-27T18:47:02.550Z,10.57
2022-12-27T18:49:28.689Z,9.98
2022-12-27T18:51:54.800Z,9.75
2022-12-27T18:54:20.919Z,12.85
2022-12-27T18:56:47.055Z,16.90
2022-12-27T18:59:13.197Z,11.07
2022-12-27T19:01:39.447Z,12.55
2022-12-27T19:04:05.664Z,13.55
2022-12-27T19:06:31.800Z,6.45
2022-12-27T19:08:57.930Z,8.57
2022-12-27T19:11:24.176Z,9.23
2022-12-27T19:13:50.391Z,10.43
2022-12-27T19:16:16.599Z,11.73
2022-12-27T19:18:42.754Z,9.65
2022-12-27T19:21:08.911Z,9.93
2022-12-27T19:23:35.057Z,9.45
2022-12-27T19:26:01.244Z,7.93
2022-12-27T19:28:27.397Z,10.23
2022-12-27T19:30:53.524Z,8.57
2022-12-27T19:33:19.631Z,5.40
2022-12-27T19:35:45.791Z,7.10
2022-12-27T19:38:11.923Z,7.90
2022-12-27T19:40:38.063Z,9.30
2022-12-27T19:43:04.204Z,9.82
2022-12-27T19:45:30.379Z,7.88
2022-12-27T19:47:56.539Z,6.88
2022-12-27T19:50:22.660Z,9.38
2022-12-27T19:52:48.781Z,9.70
2022-12-27T19:55:14.877Z,7.70
2022-12-27T19:57:41.084Z,10.02
2022-12-27T20:00:12.591Z,7.95
2022-12-27T20:02:39.006Z,8.43
2022-12-27T20:05:05.213Z,8.75
2022-12-27T20:07:31.339Z,6.95
2022-12-27T20:09:57.481Z,7.65
2022-12-27T20:12:23.618Z,11.00
2022-12-27T20:14:49.792Z,9.43
2022-12-27T20:17:16.008Z,10.90
2022-12-27T20:19:42.179Z,15.13
2022-12-27T20:22:08.320Z,9.82
2022-12-27T20:24:34.457Z,10.82
2022-12-27T20:27:00.581Z,7.90
2022-12-27T20:29:26.719Z,9.10
2022-12-27T20:31:52.842Z,7.85
2022-12-27T20:34:18.970Z,10.20
2022-12-27T20:36:45.094Z,9.00
2022-12-27T20:39:11.312Z,6.70
2022-12-27T20:41:37.577Z,6.82
2022-12-27T20:44:03.775Z,8.32
2022-12-27T20:46:29.961Z,9.27
2022-12-27T20:48:56.229Z,6.50
2022-12-27T20:51:22.434Z,9.57
2022-12-27T20:53:48.580Z,7.03
2022-12-27T20:56:14.736Z,8.02
2022-12-27T20:58:41.042Z,6.45
2022-12-27T21:01:07.275Z,7.55
2022-12-27T21:03:33.456Z,7.88
2022-12-27T21:05:59.753Z,10.15
2022-12-27T21:08:25.925Z,5.90
2022-12-27T21:10:52.083Z,7.30
2022-12-27T21:13:18.252Z,5.45
2022-12-27T21:15:44.503Z,7.63
2022-12-27T21:18:10.619Z,6.07
2022-12-27T21:20:36.837Z,6.55
2022-12-27T21:23:03.006Z,5.70
2022-12-27T21:25:29.270Z,7.95
2022-12-27T21:27:55.416Z,8.32
2022-12-27T21:30:21.564Z,10.57
2022-12-27T21:32:47.728Z,9.90
2022-12-27T21:35:13.858Z,10.35
2022-12-27T21:37:39.982Z,7.53
2022-12-27T21:40:06.196Z,6.70
2022-12-27T21:42:32.343Z,7.32
2022-12-27T21:44:58.525Z,6.38
2022-12-27T21:47:24.821Z,8.68
2022-12-27T21:49:51.022Z,8.90
2022-12-27T21:52:17.191Z,5.65
2022-12-27T21:54:43.359Z,8.70
2022-12-27T21:57:09.558Z,6.60
2022-12-27T21:59:35.777Z,6.57
2022-12-27T22:02:02.259Z,5.60
2022-12-27T22:04:28.451Z,4.72
2022-12-27T22:06:54.591Z,6.75
2022-12-27T22:09:20.735Z,7.38
2022-12-27T22:11:46.871Z,7.15
2022-12-27T22:14:12.989Z,7.10
2022-12-27T22:16:39.192Z,7.10
2022-12-27T22:19:05.400Z,6.22
2022-12-27T22:21:31.604Z,8.70
2022-12-27T22:23:57.787Z,7.32
2022-12-27T22:26:23.928Z,7.00
2022-12-27T22:28:50.327Z,8.68
2022-12-27T22:31:16.461Z,5.97
2022-12-27T22:33:42.708Z,9.05
2022-12-27T22:36:08.936Z,8.82
2022-12-27T22:38:36.623Z,5.90
2022-12-27T22:41:03.044Z,7.45
2022-12-27T22:43:29.419Z,5.47
2022-12-27T22:45:55.563Z,5.43
2022-12-27T22:48:21.749Z,7.43
2022-12-27T22:50:47.912Z,4.50
2022-12-27T22:53:14.129Z,6.05
2022-12-27T22:55:40.254Z,8.10
2022-12-27T22:58:06.494Z,6.88
2022-12-27T23:00:32.712Z,9.30
2022-12-27T23:02:58.996Z,5.32
2022-12-27T23:05:25.202Z,6.00
2022-12-27T23:08:04.503Z,5.70
2022-12-27T23:10:33.008Z,6.90
2022-12-27T23:12:59.202Z,7.07
2022-12-27T23:15:25.407Z,5.30
2022-12-27T23:17:51.566Z,6.10
2022-12-27T23:20:17.746Z,4.90
2022-12-27T23:22:43.877Z,4.55
2022-12-27T23:25:10.057Z,6.32
2022-12-27T23:27:36.220Z,12.98
2022-12-27T23:30:02.344Z,7.45
2022-12-27T23:32:28.468Z,4.97
2022-12-27T23:34:54.615Z,5.90
2022-12-27T23:37:20.910Z,5.07
2022-12-27T23:39:47.094Z,3.95
2022-12-27T23:42:13.224Z,4.97
2022-12-27T23:44:39.389Z,4.82
2022-12-27T23:47:05.869Z,4.82
2022-12-27T23:49:32.328Z,5.55
2022-12-27T23:51:58.452Z,5.88
2022-12-27T23:54:24.616Z,5.13
2022-12-27T23:56:50.743Z,5.45
2022-12-27T23:59:16.938Z,5.70
